Time;durP1;ratioP1;P1;durP2;ratioP2;P2;SDS_P1;SDS_P2;PMS_P1;PMS_P2;Temp;Humidity;BMP_temperature;BMP_pressure;BME280_temperature;BME280_humidity;BME280_pressure;Samples;Min_cycle;Max_cycle;Signal;HPM_P1;HPM_P2
2023/06/17 00:00:29;;;;;;;;;;;14.70;99.90;;;;;;5018173;28;19913;-74
2023/06/17 00:02:55;;;;;;;;;;;14.60;99.90;;;;;;5035870;28;19909;-75
2023/06/17 00:05:21;;;;;;;;;;;14.60;99.90;;;;;;5035883;28;19959;-75
2023/06/17 00:07:46;;;;;;;;;;;14.60;99.90;;;;;;5017993;28;19944;-75
2023/06/17 00:10:11;;;;;;;;;;;14.60;99.90;;;;;;5035746;28;20311;-75
2023/06/17 00:12:37;;;;;;;;;;;14.60;99.90;;;;;;5036384;28;19905;-75
2023/06/17 00:15:04;;;;;;;;;;;14.50;99.90;;;;;;5036195;28;19905;-75
2023/06/17 00:17:30;;;;;;;;;;;14.50;99.90;;;;;;5017882;28;19905;-75
2023/06/17 00:20:08;;;;;;;;;;;14.40;99.90;;;;;;5017556;28;19913;-75
2023/06/17 00:22:39;;;;;;;;;;;14.40;99.90;;;;;;5017741;28;20386;-75
2023/06/17 00:25:05;;;;;;;;;;;14.40;99.90;;;;;;5035552;28;19909;-75
2023/06/17 00:27:30;;;;;;;;;;;14.40;99.90;;;;;;5035990;28;20375;-75
2023/06/17 00:29:59;;;;;;;;;;;15.40;99.90;;;;;;5035386;28;19946;-75
2023/06/17 00:32:26;;;;;;;;;;;15.40;99.90;;;;;;5035420;28;19909;-75
2023/06/17 00:34:52;;;;;;;;;;;14.20;99.90;;;;;;5017536;28;19932;-75
2023/06/17 00:37:17;;;;;;;;;;;14.20;99.90;;;;;;5036182;28;19905;-75
2023/06/17 00:39:43;;;;;;;;;;;14.10;99.90;;;;;;5035289;28;19995;-75
2023/06/17 00:42:08;;;;;;;;;;;14.20;99.90;;;;;;5017286;28;19916;-75
2023/06/17 00:44:33;;;;;;;;;;;14.10;99.90;;;;;;5035174;28;20361;-75
2023/06/17 00:46:59;;;;;;;;;;;14.10;99.90;;;;;;5017336;28;19905;-75
2023/06/17 00:49:31;;;;;;;;;;;14.00;99.90;;;;;;5035130;28;19909;-75
2023/06/17 00:52:04;;;;;;;;;;;14.00;99.90;;;;;;5017412;28;20466;-75
2023/06/17 00:54:30;;;;;;;;;;;13.90;99.90;;;;;;5035091;28;20378;-75
2023/06/17 00:56:57;;;;;;;;;;;15.50;99.90;;;;;;5034933;28;19998;-75
2023/06/17 00:59:22;;;;;;;;;;;13.90;99.90;;;;;;5017268;28;19920;-75
2023/06/17 01:01:48;;;;;;;;;;;13.80;99.90;;;;;;5034786;28;19908;-75
2023/06/17 01:04:15;;;;;;;;;;;13.80;99.90;;;;;;5016953;28;20295;-75
2023/06/17 01:06:45;;;;;;;;;;;13.70;99.90;;;;;;5034151;28;19948;-75
2023/06/17 01:09:15;;;;;;;;;;;14.80;99.90;;;;;;5034594;28;20104;-75
2023/06/17 01:11:41;;;;;;;;;;;13.90;99.90;;;;;;5034693;28;19955;-75
2023/06/17 01:14:08;;;;;;;;;;;13.60;99.90;;;;;;5035163;28;19913;-75
2023/06/17 01:16:34;;;;;;;;;;;14.90;99.90;;;;;;5016880;28;20395;-75
2023/06/17 01:19:02;;;;;;;;;;;13.50;99.90;;;;;;5016814;28;19905;-75
2023/06/17 01:21:31;;;;;;;;;;;13.40;99.90;;;;;;5016664;28;20395;-75
2023/06/17 01:23:59;;;;;;;;;;;13.40;99.90;;;;;;5034333;28;19951;-75
2023/06/17 01:26:24;;;;;;;;;;;13.40;99.90;;;;;;5034447;28;20384;-75
2023/06/17 01:28:50;;;;;;;;;;;13.30;99.90;;;;;;5034783;28;19944;-75
2023/06/17 01:31:18;;;;;;;;;;;13.30;99.90;;;;;;5016453;28;19905;-74
2023/06/17 01:33:47;;;;;;;;;;;13.30;99.90;;;;;;5034845;28;19947;-75
2023/06/17 01:36:24;;;;;;;;;;;14.10;99.90;;;;;;5016433;28;19905;-75
2023/06/17 01:38:51;;;;;;;;;;;13.20;99.90;;;;;;5034110;28;19905;-75
2023/06/17 01:41:16;;;;;;;;;;;13.20;99.90;;;;;;5016305;28;19909;-75
2023/06/17 01:43:42;;;;;;;;;;;13.40;99.90;;;;;;5034675;28;19912;-75
2023/06/17 01:46:09;;;;;;;;;;;13.20;99.90;;;;;;5034234;28;19928;-75
2023/06/17 01:48:35;;;;;;;;;;;13.20;99.90;;;;;;5016365;28;19919;-75
2023/06/17 01:51:01;;;;;;;;;;;13.20;99.90;;;;;;5034019;28;19999;-75
2023/06/17 01:53:26;;;;;;;;;;;13.20;99.90;;;;;;5016855;28;19990;-75
2023/06/17 01:55:52;;;;;;;;;;;13.10;99.90;;;;;;5016093;28;19905;-75
2023/06/17 01:58:18;;;;;;;;;;;13.10;99.90;;;;;;5016272;28;20331;-75
2023/06/17 02:00:43;;;;;;;;;;;13.10;99.90;;;;;;5033792;28;19912;-75
2023/06/17 02:03:08;;;;;;;;;;;13.10;99.90;;;;;;5033890;28;19995;-75
2023/06/17 02:05:34;;;;;;;;;;;13.10;99.90;;;;;;5033735;28;19959;-75
2023/06/17 02:08:00;;;;;;;;;;;13.00;99.90;;;;;;5033731;28;20336;-75
2023/06/17 02:10:26;;;;;;;;;;;13.00;99.90;;;;;;5033716;28;19912;-75
2023/06/17 02:12:52;;;;;;;;;;;13.00;99.90;;;;;;5034207;28;19905;-75
2023/06/17 02:15:17;;;;;;;;;;;13.00;99.90;;;;;;5032402;28;19912;-75
2023/06/17 02:17:43;;;;;;;;;;;12.90;99.90;;;;;;5033075;28;19999;-75
2023/06/17 02:20:09;;;;;;;;;;;12.90;99.90;;;;;;5033034;28;19913;-75
2023/06/17 02:22:35;;;;;;;;;;;12.90;99.90;;;;;;5033486;28;19962;-75
2023/06/17 02:25:02;;;;;;;;;;;12.80;99.90;;;;;;5033539;28;19913;-75
2023/06/17 02:27:27;;;;;;;;;;;12.90;99.90;;;;;;5034043;28;19905;-75
2023/06/17 02:29:53;;;;;;;;;;;12.80;99.90;;;;;;5033536;28;19913;-75
2023/06/17 02:32:18;;;;;;;;;;;13.30;99.90;;;;;;5033493;28;19905;-75
2023/06/17 02:34:48;;;;;;;;;;;12.80;99.90;;;;;;5034090;28;19959;-75
2023/06/17 02:37:14;;;;;;;;;;;12.80;99.90;;;;;;5033528;28;19958;-75
2023/06/17 02:39:39;;;;;;;;;;;12.80;99.90;;;;;;5033422;28;20315;-75
2023/06/17 02:42:05;;;;;;;;;;;12.90;99.90;;;;;;5015561;28;19916;-75
2023/06/17 02:44:30;;;;;;;;;;;12.70;99.90;;;;;;5015613;28;19955;-74
2023/06/17 02:46:59;;;;;;;;;;;13.40;99.90;;;;;;5033328;28;19905;-75
2023/06/17 02:49:25;;;;;;;;;;;12.70;99.90;;;;;;5033302;28;19905;-75
2023/06/17 02:51:51;;;;;;;;;;;12.70;99.90;;;;;;5033381;28;19916;-73
2023/06/17 02:54:16;;;;;;;;;;;12.90;99.90;;;;;;5033312;28;19920;-73
2023/06/17 02:56:42;;;;;;;;;;;13.20;99.90;;;;;;5033766;28;19980;-73
2023/06/17 02:59:08;;;;;;;;;;;12.70;99.90;;;;;;5015305;28;19909;-73
2023/06/17 03:01:41;;;;;;;;;;;12.70;99.90;;;;;;5033061;28;19944;-73
2023/06/17 03:04:06;;;;;;;;;;;14.40;99.90;;;;;;5033208;28;19905;-73
2023/06/17 03:06:34;;;;;;;;;;;12.60;99.90;;;;;;5033189;28;20003;-73
2023/06/17 03:09:00;;;;;;;;;;;12.60;99.90;;;;;;5033171;28;19905;-73
2023/06/17 03:11:25;;;;;;;;;;;12.60;99.90;;;;;;5033175;28;20368;-73
2023/06/17 03:13:51;;;;;;;;;;;12.60;99.90;;;;;;5033105;28;19916;-73
2023/06/17 03:16:16;;;;;;;;;;;12.50;99.90;;;;;;5033100;28;19911;-73
2023/06/17 03:18:42;;;;;;;;;;;12.50;99.90;;;;;;5033002;28;19906;-73
2023/06/17 03:21:07;;;;;;;;;;;12.50;99.90;;;;;;5033697;28;19913;-75
2023/06/17 03:23:33;;;;;;;;;;;12.50;99.90;;;;;;5033065;28;19905;-73
2023/06/17 03:25:59;;;;;;;;;;;12.50;99.90;;;;;;5033024;28;19912;-73
2023/06/17 03:28:24;;;;;;;;;;;12.40;99.90;;;;;;5033146;28;19909;-73
2023/06/17 03:30:52;;;;;;;;;;;12.40;99.90;;;;;;5035610;28;19905;-73
2023/06/17 03:33:17;;;;;;;;;;;12.40;99.90;;;;;;5037072;28;19971;-73
2023/06/17 03:35:43;;;;;;;;;;;12.40;99.90;;;;;;5036462;28;19909;-73
2023/06/17 03:38:09;;;;;;;;;;;13.30;99.90;;;;;;5036484;28;19905;-73
2023/06/17 03:40:34;;;;;;;;;;;12.30;99.90;;;;;;5036230;28;19920;-74
2023/06/17 03:43:00;;;;;;;;;;;12.40;99.90;;;;;;5036263;28;19913;-73
2023/06/17 03:45:25;;;;;;;;;;;12.30;99.90;;;;;;5036227;28;20355;-73
2023/06/17 03:47:51;;;;;;;;;;;12.40;99.90;;;;;;5018601;28;19909;-73
2023/06/17 03:50:16;;;;;;;;;;;12.40;99.90;;;;;;5036151;28;20289;-73
2023/06/17 03:52:42;;;;;;;;;;;12.50;99.90;;;;;;5036142;28;19905;-73
2023/06/17 03:55:07;;;;;;;;;;;12.40;99.90;;;;;;5036109;28;19982;-73
2023/06/17 03:57:33;;;;;;;;;;;12.40;99.90;;;;;;5018295;28;19905;-73
2023/06/17 03:59:58;;;;;;;;;;;12.50;99.90;;;;;;5035991;28;20383;-73
2023/06/17 04:02:24;;;;;;;;;;;12.60;99.90;;;;;;5018167;28;20261;-73
2023/06/17 04:04:52;;;;;;;;;;;13.20;99.90;;;;;;5035956;28;19963;-73
2023/06/17 04:07:18;;;;;;;;;;;12.80;99.90;;;;;;5036487;28;19912;-73
2023/06/17 04:09:43;;;;;;;;;;;12.90;99.90;;;;;;5018104;28;19909;-73
2023/06/17 04:12:09;;;;;;;;;;;12.90;99.90;;;;;;5035798;28;19948;-73
2023/06/17 04:14:35;;;;;;;;;;;12.90;99.90;;;;;;5035777;28;20288;-73
2023/06/17 04:17:01;;;;;;;;;;;13.00;99.90;;;;;;5017979;28;19909;-74
2023/06/17 04:19:27;;;;;;;;;;;13.00;99.90;;;;;;5035504;28;20008;-73
2023/06/17 04:21:52;;;;;;;;;;;13.10;99.90;;;;;;5035537;28;20008;-73
2023/06/17 04:24:18;;;;;;;;;;;13.20;99.90;;;;;;5036081;28;20292;-73
2023/06/17 04:26:44;;;;;;;;;;;13.30;99.90;;;;;;5017776;28;19905;-73
2023/06/17 04:29:10;;;;;;;;;;;14.10;99.90;;;;;;5035996;28;19941;-73
2023/06/17 04:31:40;;;;;;;;;;;13.50;99.90;;;;;;5017807;28;19905;-73
2023/06/17 04:34:05;;;;;;;;;;;13.60;99.90;;;;;;5035791;28;20279;-73
2023/06/17 04:36:31;;;;;;;;;;;14.50;99.90;;;;;;5017594;28;19999;-73
2023/06/17 04:38:59;;;;;;;;;;;13.80;99.90;;;;;;5035263;28;20000;-73
2023/06/17 04:41:26;;;;;;;;;;;13.90;99.90;;;;;;5034324;28;20016;-73
2023/06/17 04:43:53;;;;;;;;;;;14.00;99.90;;;;;;5017573;28;19944;-73
2023/06/17 04:46:19;;;;;;;;;;;14.10;99.90;;;;;;5035146;28;19905;-73
2023/06/17 04:48:45;;;;;;;;;;;14.40;99.90;;;;;;5035134;28;20360;-73
2023/06/17 04:51:10;;;;;;;;;;;14.30;99.90;;;;;;5035095;28;19915;-73
2023/06/17 04:53:38;;;;;;;;;;;14.40;99.90;;;;;;5035362;28;19944;-73
2023/06/17 04:56:06;;;;;;;;;;;14.50;99.90;;;;;;5035052;28;19912;-73
2023/06/17 04:58:32;;;;;;;;;;;14.60;99.90;;;;;;5034895;28;19967;-73
2023/06/17 05:00:57;;;;;;;;;;;14.80;99.90;;;;;;5034861;28;20356;-73
2023/06/17 05:03:23;;;;;;;;;;;14.80;99.90;;;;;;5017179;28;19948;-73
2023/06/17 05:05:48;;;;;;;;;;;14.90;99.90;;;;;;5035124;28;19905;-73
2023/06/17 05:08:14;;;;;;;;;;;15.10;99.90;;;;;;5034803;28;19927;-73
2023/06/17 05:10:39;;;;;;;;;;;15.20;99.90;;;;;;5034665;28;19937;-73
2023/06/17 05:13:05;;;;;;;;;;;15.40;99.90;;;;;;5034724;28;20361;-73
2023/06/17 05:15:30;;;;;;;;;;;15.40;99.90;;;;;;5034602;28;20423;-73
2023/06/17 05:17:56;;;;;;;;;;;15.50;99.90;;;;;;5016904;28;19905;-73
2023/06/17 05:20:21;;;;;;;;;;;15.70;99.90;;;;;;5034607;28;19920;-73
2023/06/17 05:22:47;;;;;;;;;;;15.90;99.90;;;;;;5035049;28;20368;-73
2023/06/17 05:25:13;;;;;;;;;;;15.90;99.90;;;;;;5034927;28;19979;-73
2023/06/17 05:27:38;;;;;;;;;;;16.00;99.90;;;;;;5034441;28;19924;-73
2023/06/17 05:30:05;;;;;;;;;;;16.10;99.90;;;;;;5034728;28;19940;-73
2023/06/17 05:32:30;;;;;;;;;;;16.20;99.90;;;;;;5034879;28;20352;-73
2023/06/17 05:34:56;;;;;;;;;;;16.70;99.90;;;;;;5016548;28;19912;-73
2023/06/17 05:37:21;;;;;;;;;;;16.50;99.90;;;;;;5034790;28;19992;-73
2023/06/17 05:39:47;;;;;;;;;;;17.50;99.90;;;;;;5034377;28;20364;-73
2023/06/17 05:42:12;;;;;;;;;;;16.70;99.90;;;;;;5034082;28;19909;-73
2023/06/17 05:44:38;;;;;;;;;;;16.80;99.90;;;;;;5034102;28;20060;-73
2023/06/17 05:47:03;;;;;;;;;;;17.00;99.90;;;;;;5016503;28;19905;-73
2023/06/17 05:49:28;;;;;;;;;;;17.00;99.90;;;;;;5033970;28;20364;-73
2023/06/17 05:51:54;;;;;;;;;;;17.00;99.90;;;;;;5033907;28;20319;-73
2023/06/17 05:54:19;;;;;;;;;;;17.20;99.90;;;;;;5033868;28;19999;-73
2023/06/17 05:56:45;;;;;;;;;;;17.30;99.90;;;;;;5034530;28;19912;-73
2023/06/17 05:59:10;;;;;;;;;;;17.50;99.90;;;;;;5016204;28;19909;-73
2023/06/17 06:01:36;;;;;;;;;;;17.50;99.90;;;;;;5016186;28;20031;-73
2023/06/17 06:04:01;;;;;;;;;;;17.90;99.90;;;;;;5033840;28;19905;-73
2023/06/17 06:06:27;;;;;;;;;;;17.70;99.90;;;;;;5016093;28;19913;-73
2023/06/17 06:08:52;;;;;;;;;;;17.90;99.90;;;;;;5033565;28;19916;-73
2023/06/17 06:11:18;;;;;;;;;;;18.60;99.90;;;;;;5034393;28;19912;-73
2023/06/17 06:13:43;;;;;;;;;;;18.90;99.90;;;;;;5033699;28;19905;-73
2023/06/17 06:16:09;;;;;;;;;;;18.30;99.90;;;;;;5033736;28;19941;-73
2023/06/17 06:18:34;;;;;;;;;;;18.40;99.90;;;;;;5015948;28;19905;-73
2023/06/17 06:21:00;;;;;;;;;;;18.70;99.90;;;;;;5033465;28;20276;-73
2023/06/17 06:23:25;;;;;;;;;;;18.70;99.90;;;;;;5033589;28;19928;-73
2023/06/17 06:25:51;;;;;;;;;;;18.70;99.90;;;;;;5034195;28;19909;-73
2023/06/17 06:28:16;;;;;;;;;;;18.90;99.90;;;;;;5034098;28;19904;-73
2023/06/17 06:30:42;;;;;;;;;;;19.00;99.90;;;;;;5033429;28;20356;-73
2023/06/17 06:33:07;;;;;;;;;;;19.10;99.90;;;;;;5033665;28;20283;-73
2023/06/17 06:35:33;;;;;;;;;;;19.30;99.90;;;;;;5034091;28;19912;-73
2023/06/17 06:37:58;;;;;;;;;;;19.30;99.90;;;;;;5034225;28;19905;-73
2023/06/17 06:40:24;;;;;;;;;;;19.40;99.90;;;;;;5033448;28;19905;-73
2023/06/17 06:42:49;;;;;;;;;;;19.60;99.90;;;;;;5033474;28;19908;-73
2023/06/17 06:45:15;;;;;;;;;;;19.60;99.90;;;;;;5015603;28;19905;-73
2023/06/17 06:47:40;;;;;;;;;;;19.70;99.90;;;;;;5033192;28;20364;-73
2023/06/17 06:50:06;;;;;;;;;;;19.90;99.90;;;;;;5033309;28;19905;-73
2023/06/17 06:52:31;;;;;;;;;;;19.90;99.90;;;;;;5033303;28;19912;-73
2023/06/17 06:54:57;;;;;;;;;;;20.10;99.90;;;;;;5033302;28;19958;-73
2023/06/17 06:57:22;;;;;;;;;;;20.50;99.90;;;;;;5033335;28;19944;-73
2023/06/17 06:59:48;;;;;;;;;;;20.20;99.90;;;;;;5033209;28;20403;-73
2023/06/17 07:02:13;;;;;;;;;;;20.30;99.90;;;;;;5033125;28;19960;-73
2023/06/17 07:04:39;;;;;;;;;;;20.60;99.90;;;;;;5034037;28;20458;-73
2023/06/17 07:07:04;;;;;;;;;;;20.40;99.90;;;;;;5037148;28;19905;-73
2023/06/17 07:09:30;;;;;;;;;;;20.60;99.90;;;;;;5037510;28;19960;-73
2023/06/17 07:11:55;;;;;;;;;;;20.70;99.90;;;;;;5037030;28;19905;-73
2023/06/17 07:14:21;;;;;;;;;;;20.80;99.90;;;;;;5036965;28;19915;-73
2023/06/17 07:16:46;;;;;;;;;;;20.90;99.90;;;;;;5036853;28;19905;-73
2023/06/17 07:19:12;;;;;;;;;;;21.10;99.90;;;;;;5036760;28;19912;-73
2023/06/17 07:21:37;;;;;;;;;;;21.30;99.40;;;;;;5036735;28;19909;-73
2023/06/17 07:24:03;;;;;;;;;;;21.40;98.60;;;;;;5036767;28;19905;-73
2023/06/17 07:26:28;;;;;;;;;;;21.40;96.90;;;;;;5037373;28;19905;-73
2023/06/17 07:28:54;;;;;;;;;;;21.40;95.70;;;;;;5037174;28;20000;-73
2023/06/17 07:31:20;;;;;;;;;;;21.50;95.60;;;;;;5037130;28;20054;-73
2023/06/17 07:33:45;;;;;;;;;;;21.70;94.70;;;;;;5019003;28;19905;-73
2023/06/17 07:36:10;;;;;;;;;;;21.80;94.20;;;;;;5037109;28;19962;-73
2023/06/17 07:38:36;;;;;;;;;;;22.00;93.10;;;;;;5036497;28;19909;-74
2023/06/17 07:41:02;;;;;;;;;;;22.00;93.20;;;;;;5036910;28;19905;-73
2023/06/17 07:43:27;;;;;;;;;;;22.00;92.10;;;;;;5036915;28;19968;-73
2023/06/17 07:45:53;;;;;;;;;;;22.00;91.40;;;;;;5036438;28;19905;-73
2023/06/17 07:48:18;;;;;;;;;;;22.10;91.10;;;;;;5036844;28;19909;-73
2023/06/17 07:50:44;;;;;;;;;;;22.20;90.80;;;;;;5018505;28;19937;-73
2023/06/17 07:53:10;;;;;;;;;;;22.40;89.90;;;;;;5018621;28;19905;-73
2023/06/17 07:55:36;;;;;;;;;;;22.50;83.40;;;;;;5036225;28;19905;-73
2023/06/17 07:58:01;;;;;;;;;;;22.60;79.60;;;;;;5018408;28;19916;-73
2023/06/17 08:00:27;;;;;;;;;;;22.60;82.00;;;;;;5018224;28;19905;-73
2023/06/17 08:02:53;;;;;;;;;;;22.70;80.00;;;;;;5018023;28;19959;-74
2023/06/17 08:05:19;;;;;;;;;;;22.80;77.50;;;;;;5018229;28;19932;-73
2023/06/17 08:07:44;;;;;;;;;;;22.90;77.30;;;;;;5035894;28;19905;-74
2023/06/17 08:10:12;;;;;;;;;;;23.00;76.40;;;;;;5036027;28;20284;-73
2023/06/17 08:12:38;;;;;;;;;;;23.10;76.20;;;;;;5035919;28;19951;-73
2023/06/17 08:15:03;;;;;;;;;;;23.10;75.90;;;;;;5035838;28;20329;-73
2023/06/17 08:17:29;;;;;;;;;;;23.30;78.40;;;;;;5035818;28;19905;-73
2023/06/17 08:19:55;;;;;;;;;;;23.20;76.70;;;;;;5035558;28;19913;-73
2023/06/17 08:22:21;;;;;;;;;;;23.30;78.00;;;;;;5035535;28;19920;-73
2023/06/17 08:24:47;;;;;;;;;;;23.40;76.00;;;;;;5017910;28;19905;-73
2023/06/17 08:27:13;;;;;;;;;;;23.60;76.20;;;;;;5035969;28;19909;-73
2023/06/17 08:29:38;;;;;;;;;;;23.80;73.10;;;;;;5036018;28;19913;-73
2023/06/17 08:32:04;;;;;;;;;;;23.80;70.00;;;;;;5035460;28;19905;-73
2023/06/17 08:34:31;;;;;;;;;;;23.90;69.60;;;;;;5017720;28;19947;-73
2023/06/17 08:37:01;;;;;;;;;;;24.10;70.00;;;;;;5035929;28;20268;-73
2023/06/17 08:39:26;;;;;;;;;;;24.10;65.10;;;;;;5035279;28;19905;-73
2023/06/17 08:41:52;;;;;;;;;;;24.20;65.20;;;;;;5035179;28;20419;-73
2023/06/17 08:44:18;;;;;;;;;;;24.30;62.80;;;;;;5018192;28;20043;-73
2023/06/17 08:46:46;;;;;;;;;;;24.30;59.60;;;;;;5035187;28;19905;-74
2023/06/17 08:49:14;;;;;;;;;;;24.30;59.80;;;;;;5035683;28;19915;-73
2023/06/17 08:51:40;;;;;;;;;;;24.20;60.10;;;;;;5035072;28;19906;-73
2023/06/17 08:54:06;;;;;;;;;;;24.30;60.30;;;;;;5035022;28;19905;-73
2023/06/17 08:56:32;;;;;;;;;;;24.50;59.10;;;;;;5034940;28;19958;-73
2023/06/17 08:58:57;;;;;;;;;;;24.80;57.90;;;;;;5034812;28;19913;-73
2023/06/17 09:01:23;;;;;;;;;;;24.80;56.00;;;;;;5034805;28;19908;-73
2023/06/17 09:03:52;;;;;;;;;;;24.80;57.50;;;;;;5034741;28;19994;-73
2023/06/17 09:06:17;;;;;;;;;;;25.00;58.90;;;;;;5035379;28;20009;-74
2023/06/17 09:08:43;;;;;;;;;;;25.00;57.10;;;;;;5034683;28;19913;-73
2023/06/17 09:11:09;;;;;;;;;;;25.00;58.40;;;;;;5034747;28;19912;-74
2023/06/17 09:13:35;;;;;;;;;;;25.00;59.10;;;;;;5035257;28;19955;-74
2023/06/17 09:16:01;;;;;;;;;;;25.00;60.60;;;;;;5034499;28;20396;-73
2023/06/17 09:18:26;;;;;;;;;;;24.90;61.30;;;;;;5033817;28;19912;-73
2023/06/17 09:20:55;;;;;;;;;;;25.00;61.70;;;;;;5015204;28;19913;-73
2023/06/17 09:23:21;;;;;;;;;;;25.00;58.70;;;;;;5033981;28;20468;-73
2023/06/17 09:25:47;;;;;;;;;;;25.00;58.10;;;;;;5017075;28;19988;-75
2023/06/17 09:28:12;;;;;;;;;;;25.10;58.10;;;;;;5032997;28;19940;-75
2023/06/17 09:30:43;;;;;;;;;;;25.20;57.70;;;;;;5034355;28;19912;-73
2023/06/17 09:33:22;;;;;;;;;;;25.40;57.70;;;;;;5017180;28;19905;-78
2023/06/17 09:35:47;;;;;;;;;;;25.40;58.00;;;;;;5018046;28;19950;-78
2023/06/17 09:38:17;;;;;;;;;;;25.70;55.70;;;;;;5035037;28;19905;-76
2023/06/17 09:40:47;;;;;;;;;;;25.80;55.20;;;;;;5016964;28;19944;-74
2023/06/17 09:43:12;;;;;;;;;;;25.90;55.60;;;;;;5034153;28;19909;-74
2023/06/17 09:45:40;;;;;;;;;;;25.90;53.80;;;;;;5034009;28;19905;-74
2023/06/17 09:48:09;;;;;;;;;;;26.10;52.00;;;;;;5034035;28;19928;-74
2023/06/17 09:50:37;;;;;;;;;;;26.00;49.30;;;;;;5016230;28;19905;-74
2023/06/17 09:53:02;;;;;;;;;;;26.10;49.70;;;;;;5016284;28;19937;-74
2023/06/17 09:55:28;;;;;;;;;;;26.30;51.30;;;;;;5016285;28;20361;-74
2023/06/17 09:57:54;;;;;;;;;;;26.50;51.90;;;;;;5016206;28;19939;-74
2023/06/17 10:00:21;;;;;;;;;;;26.50;50.40;;;;;;5016573;28;19905;-74
2023/06/17 10:02:46;;;;;;;;;;;26.40;50.90;;;;;;5033858;28;19915;-74
2023/06/17 10:05:12;;;;;;;;;;;26.40;51.30;;;;;;5033775;28;19991;-74
2023/06/17 10:07:39;;;;;;;;;;;26.30;49.00;;;;;;5033794;28;19912;-74
2023/06/17 10:10:06;;;;;;;;;;;26.70;48.50;;;;;;5033549;28;19906;-74
2023/06/17 10:12:33;;;;;;;;;;;26.80;49.70;;;;;;5015977;28;19916;-74
2023/06/17 10:14:59;;;;;;;;;;;27.00;48.50;;;;;;5033829;28;19905;-74
2023/06/17 10:17:25;;;;;;;;;;;27.20;47.20;;;;;;5033778;28;19934;-74
2023/06/17 10:19:52;;;;;;;;;;;27.30;48.90;;;;;;5033220;28;19917;-75
2023/06/17 10:22:19;;;;;;;;;;;27.60;49.60;;;;;;5032915;28;19909;-74
2023/06/17 10:24:46;;;;;;;;;;;27.70;47.10;;;;;;5032926;28;19991;-74
2023/06/17 10:27:12;;;;;;;;;;;27.90;47.90;;;;;;5015062;28;19905;-74
2023/06/17 10:29:41;;;;;;;;;;;27.90;46.10;;;;;;5032638;28;20315;-74
2023/06/17 10:32:19;;;;;;;;;;;28.00;46.70;;;;;;5032675;28;19995;-74
2023/06/17 10:35:04;;;;;;;;;;;27.90;46.70;;;;;;5014910;28;19912;-75
2023/06/17 10:37:29;;;;;;;;;;;28.00;46.60;;;;;;5014914;28;19905;-74
2023/06/17 10:39:55;;;;;;;;;;;28.10;46.60;;;;;;5034330;28;19911;-74
2023/06/17 10:42:24;;;;;;;;;;;28.20;45.60;;;;;;5018268;28;19941;-74
2023/06/17 10:44:50;;;;;;;;;;;28.10;45.70;;;;;;5036199;28;19977;-74
2023/06/17 10:47:19;;;;;;;;;;;28.20;48.50;;;;;;5036102;28;19945;-74
2023/06/17 10:49:45;;;;;;;;;;;28.30;46.90;;;;;;5018144;28;20371;-74
2023/06/17 10:52:11;;;;;;;;;;;28.50;46.40;;;;;;5036543;28;19999;-75
2023/06/17 10:54:42;;;;;;;;;;;28.60;46.20;;;;;;5035923;28;19912;-74
2023/06/17 10:57:08;;;;;;;;;;;28.80;44.10;;;;;;5036027;28;20335;-74
2023/06/17 10:59:33;;;;;;;;;;;28.80;42.30;;;;;;5035818;28;19944;-74
2023/06/17 11:02:01;;;;;;;;;;;28.90;44.00;;;;;;5018151;28;19948;-74
2023/06/17 11:04:36;;;;;;;;;;;29.10;44.70;;;;;;5035812;28;19992;-74
2023/06/17 11:07:02;;;;;;;;;;;29.10;42.40;;;;;;5035752;28;20330;-75
2023/06/17 11:09:28;;;;;;;;;;;29.50;44.70;;;;;;5035703;28;20340;-74
2023/06/17 11:11:54;;;;;;;;;;;29.50;40.40;;;;;;5035613;28;19952;-74
2023/06/17 11:14:20;;;;;;;;;;;29.70;41.90;;;;;;5035733;28;19951;-74
2023/06/17 11:16:46;;;;;;;;;;;29.70;39.90;;;;;;5036073;28;19954;-74
2023/06/17 11:19:14;;;;;;;;;;;30.00;41.70;;;;;;4994307;28;1176878;-74
2023/06/17 11:21:40;;;;;;;;;;;30.00;40.90;;;;;;5036888;28;19915;-74
2023/06/17 11:24:06;;;;;;;;;;;30.20;42.20;;;;;;5018828;28;20353;-74
2023/06/17 11:26:32;;;;;;;;;;;30.20;40.20;;;;;;5017758;28;20330;-75
2023/06/17 11:28:57;;;;;;;;;;;30.10;41.90;;;;;;5017549;28;19956;-74
2023/06/17 11:31:25;;;;;;;;;;;29.80;41.30;;;;;;5036583;28;19905;-74
2023/06/17 11:33:57;;;;;;;;;;;29.80;42.40;;;;;;5036403;28;19905;-75
2023/06/17 11:36:24;;;;;;;;;;;30.30;43.60;;;;;;5035518;28;19992;-75
2023/06/17 11:38:51;;;;;;;;;;;30.30;39.40;;;;;;5036523;28;19905;-76
2023/06/17 11:41:16;;;;;;;;;;;30.20;39.40;;;;;;5036714;28;19905;-75
2023/06/17 11:43:42;;;;;;;;;;;30.60;41.40;;;;;;5036876;28;19907;-75
2023/06/17 11:46:08;;;;;;;;;;;31.00;41.60;;;;;;5018583;28;19905;-75
2023/06/17 11:48:34;;;;;;;;;;;31.20;40.50;;;;;;5036407;28;19905;-75
2023/06/17 11:50:59;;;;;;;;;;;31.40;37.50;;;;;;5035820;28;19912;-75
2023/06/17 11:53:38;;;;;;;;;;;31.20;37.90;;;;;;5036820;28;19909;-75
2023/06/17 11:56:07;;;;;;;;;;;31.00;37.60;;;;;;5036677;28;19909;-75
2023/06/17 11:58:34;;;;;;;;;;;31.00;39.80;;;;;;5018414;28;19905;-75
2023/06/17 12:01:00;;;;;;;;;;;31.10;34.70;;;;;;5035985;28;19911;-75
2023/06/17 12:03:27;;;;;;;;;;;31.20;36.10;;;;;;5018345;28;19909;-75
2023/06/17 12:05:52;;;;;;;;;;;31.40;34.60;;;;;;5018113;28;19905;-75
2023/06/17 12:08:18;;;;;;;;;;;31.50;34.90;;;;;;5035858;28;20023;-75
2023/06/17 12:10:43;;;;;;;;;;;31.70;35.30;;;;;;5035828;28;20380;-75
2023/06/17 12:13:12;;;;;;;;;;;32.00;37.90;;;;;;5035832;28;19951;-75
2023/06/17 12:15:38;;;;;;;;;;;32.20;37.80;;;;;;5035827;28;19905;-75
2023/06/17 12:18:13;;;;;;;;;;;32.40;38.20;;;;;;5017998;28;20015;-75
2023/06/17 12:20:47;;;;;;;;;;;32.50;36.30;;;;;;5017752;28;19913;-75
2023/06/17 12:23:12;;;;;;;;;;;32.60;37.00;;;;;;5035563;28;19936;-75
2023/06/17 12:25:38;;;;;;;;;;;32.50;37.00;;;;;;5017842;28;19909;-75
2023/06/17 12:28:03;;;;;;;;;;;32.60;35.20;;;;;;5035584;28;19905;-75
2023/06/17 12:30:29;;;;;;;;;;;32.80;36.80;;;;;;5035503;28;19999;-75
2023/06/17 12:32:55;;;;;;;;;;;33.40;38.70;;;;;;5035511;28;19909;-75
2023/06/17 12:35:22;;;;;;;;;;;33.70;36.30;;;;;;5036002;28;19917;-75
2023/06/17 12:37:49;;;;;;;;;;;33.80;37.00;;;;;;5035341;28;19912;-75
2023/06/17 12:40:14;;;;;;;;;;;34.10;37.10;;;;;;5035911;28;19970;-75
2023/06/17 12:42:40;;;;;;;;;;;34.10;34.80;;;;;;5017549;28;19940;-75
2023/06/17 12:45:06;;;;;;;;;;;33.90;35.20;;;;;;5035274;28;19905;-75
2023/06/17 12:47:32;;;;;;;;;;;34.20;36.10;;;;;;5035219;28;20412;-75
2023/06/17 12:49:57;;;;;;;;;;;34.50;33.20;;;;;;5017375;28;19966;-75
2023/06/17 12:52:23;;;;;;;;;;;34.50;31.90;;;;;;5035570;28;19931;-75
2023/06/17 12:54:58;;;;;;;;;;;34.60;32.20;;;;;;5036060;28;20360;-79
2023/06/17 12:57:27;;;;;;;;;;;34.70;32.60;;;;;;5018714;28;19916;-79
2023/06/17 12:59:53;;;;;;;;;;;34.80;31.40;;;;;;5036643;28;19928;-80
2023/06/17 13:02:19;;;;;;;;;;;34.80;30.70;;;;;;5018672;28;19909;-79
2023/06/17 13:04:44;;;;;;;;;;;34.80;29.90;;;;;;5036640;28;19948;-79
2023/06/17 13:07:10;;;;;;;;;;;35.00;29.10;;;;;;5037471;28;19905;-79
2023/06/17 13:09:36;;;;;;;;;;;35.10;31.20;;;;;;5037736;28;20356;-79
2023/06/17 13:12:01;;;;;;;;;;;34.90;30.20;;;;;;5038021;28;19916;-79
2023/06/17 13:14:27;;;;;;;;;;;34.80;31.40;;;;;;5035998;28;19912;-79
2023/06/17 13:16:53;;;;;;;;;;;34.60;32.90;;;;;;5019035;28;19905;-79
2023/06/17 13:19:19;;;;;;;;;;;34.40;31.80;;;;;;5037633;28;19905;-79
2023/06/17 13:21:46;;;;;;;;;;;34.10;33.00;;;;;;5020943;28;20280;-80
2023/06/17 13:24:14;;;;;;;;;;;34.20;32.40;;;;;;5021474;28;19971;-79
2023/06/17 13:26:40;;;;;;;;;;;34.10;31.50;;;;;;5036774;28;19909;-79
2023/06/17 13:29:06;;;;;;;;;;;34.10;32.20;;;;;;5037360;28;19905;-79
2023/06/17 13:31:32;;;;;;;;;;;34.30;30.60;;;;;;5036899;28;19912;-79
2023/06/17 13:34:00;;;;;;;;;;;34.50;30.80;;;;;;5036332;28;19904;-76
2023/06/17 13:36:27;;;;;;;;;;;34.50;30.00;;;;;;5016586;28;19905;-76
2023/06/17 13:38:52;;;;;;;;;;;34.70;30.30;;;;;;5034194;28;20000;-75
2023/06/17 13:41:18;;;;;;;;;;;34.20;29.60;;;;;;5034142;28;19940;-76
2023/06/17 13:43:44;;;;;;;;;;;34.20;31.00;;;;;;5034203;28;19992;-76
2023/06/17 13:46:09;;;;;;;;;;;34.60;31.20;;;;;;5016495;28;19905;-76
2023/06/17 13:48:35;;;;;;;;;;;34.50;29.60;;;;;;5034336;28;19928;-77
2023/06/17 13:51:02;;;;;;;;;;;34.80;31.40;;;;;;5033377;28;19909;-77
2023/06/17 13:53:28;;;;;;;;;;;35.00;29.30;;;;;;5034690;28;19905;-77
2023/06/17 13:55:53;;;;;;;;;;;35.00;31.10;;;;;;5034639;28;19946;-77
2023/06/17 13:58:19;;;;;;;;;;;35.40;31.10;;;;;;5016586;28;19909;-77
2023/06/17 14:00:44;;;;;;;;;;;35.30;30.40;;;;;;5035084;28;19905;-77
2023/06/17 14:03:10;;;;;;;;;;;35.40;30.20;;;;;;5034893;28;20407;-77
2023/06/17 14:05:35;;;;;;;;;;;35.50;32.10;;;;;;5034293;28;19905;-77
2023/06/17 14:08:01;;;;;;;;;;;35.70;31.70;;;;;;5034445;28;19952;-77
2023/06/17 14:10:26;;;;;;;;;;;35.90;32.20;;;;;;5016728;28;19951;-77